• Join FlightAware (Why Join?)
  • Login
  • US Flag 
09:39AM EST


 

Airport Tracker/Info


-or-


 

Live Flight TrackerFlight Track Log ✈ BBA13 ✈ 03-Oct-2013 ✈ CYZD - CYZD

Flight Track Log - Related Links

Times and Time Zones

All times are in EDT time to prevent confusion due to time zone crossing. See the BBA13 flight status page for this flight to view local times or setup timezone preferences in your user account.

Time Position Orientation Groundspeed Altitude Reporting Facility
EDT Latitude Longitude Course Direction KTS MPH feet Rate Location/Type
04:29PM 43.7840 -79.5080 324° Northwest 191 220 1,500  Level FlightAware
04:29PM 43.7980 -79.5220 324° Northwest 199 229 2,000 1,620 Climbing FlightAware
04:29PM 43.8130 -79.5390 321° Northwest 246 283 2,600 3,840 Climbing FlightAware
04:30PM 43.8400 -79.5640 326° Northwest 248 285 4,900 5,460 Climbing FlightAware
04:30PM 43.8510 -79.5680 345° North 248 285 5,800 4,800 Climbing FlightAware
04:30PM 43.8600 -79.5680 360° North 244 281 6,500 2,160 Climbing FlightAware
04:30PM 43.8840 -79.5680 360° North 241 277 6,900 600 Climbing FlightAware
04:31PM 43.9120 -79.5700 357° North 232 267 7,000 1,080 Climbing FlightAware
04:31PM 43.9360 -79.5740 353° North 238 274 7,800 3,360 Climbing FlightAware
04:31PM 43.9620 -79.5780 354° North 240 276 9,500 4,320 Climbing FlightAware
04:32PM 44.0190 -79.5770 North 252 290 13,100 3,780 Climbing FlightAware
04:33PM 44.0580 -79.5610 16° North 268 308 14,700 1,500 Climbing FlightAware
04:33PM 44.1010 -79.5400 19° North 265 305 14,900 120 Climbing FlightAware
04:34PM 44.1430 -79.5150 23° Northeast 268 308 14,900  Level FlightAware
04:35PM 44.1760 -79.4920 27° Northeast 269 310 14,900  Level FlightAware
04:35PM 44.2160 -79.4660 25° Northeast 271 312 14,900  Level FlightAware
04:36PM 44.2580 -79.4380 26° Northeast 270 311 14,900  Level FlightAware
04:36PM 44.2970 -79.4120 26° Northeast 270 311 14,900  Level FlightAware
04:37PM 44.3380 -79.3850 25° Northeast 270 311 14,900  Level FlightAware
04:38PM 44.3740 -79.3600 26° Northeast 249 287 14,900  Level FlightAware
04:38PM 44.4090 -79.3370 25° Northeast 221 254 14,900  Level FlightAware
04:39PM 44.4360 -79.3170 28° Northeast 220 253 14,900  Level FlightAware
04:39PM 44.4650 -79.2970 26° Northeast 208 239 14,900  Level FlightAware
04:40PM 44.4900 -79.2790 27° Northeast 195 224 14,900  Level FlightAware
04:40PM 44.5230 -79.2540 28° Northeast 185 213 14,900  Level FlightAware
04:41PM 44.5470 -79.2340 31° Northeast 172 198 14,900  Level FlightAware
04:42PM 44.5720 -79.2150 28° Northeast 172 198 14,900  Level FlightAware
04:42PM 44.5950 -79.1980 28° Northeast 169 194 14,900  Level FlightAware
04:43PM 44.6240 -79.1760 28° Northeast 218 251 14,900 300 Level FlightAware
04:43PM 44.6570 -79.1520 27° Northeast 287 330 15,300 900 Climbing FlightAware
04:44PM 44.7120 -79.1160 25° Northeast 364 419 16,000 1,320 Climbing FlightAware
04:44PM 44.7680 -79.0800 25° Northeast 401 461 17,000 2,460 Climbing FlightAware
04:45PM 44.8300 -79.0400 25° Northeast 413 475 18,900 3,180 Climbing FlightAware
04:46PM 44.8860 -79.0020 26° Northeast 420 483 20,700 3,060 Climbing FlightAware
04:46PM 44.9530 -78.9580 25° Northeast 436 502 22,500 2,820 Climbing FlightAware
04:47PM 45.0090 -78.9210 25° Northeast 448 516 23,900 2,520 Climbing FlightAware
04:47PM 45.0770 -78.8740 26° Northeast 462 532 25,400 2,700 Climbing FlightAware
04:48PM 45.1470 -78.8280 25° Northeast 469 540 27,100 2,520 Climbing FlightAware
04:48PM 45.2160 -78.7800 26° Northeast 483 556 28,300 1,980 Climbing FlightAware
04:49PM 45.2910 -78.7290 26° Northeast 498 573 29,500 2,160 Climbing FlightAware
04:50PM 45.3660 -78.6790 25° Northeast 500 575 31,000 1,260 Climbing FlightAware
04:50PM 45.4380 -78.6320 25° Northeast 526 605 31,000  Level FlightAware
04:51PM 45.5160 -78.5810 25° Northeast 529 609 31,000  Level FlightAware
04:51PM 45.5900 -78.5330 24° Northeast 528 608 31,000  Level FlightAware
04:52PM 45.6730 -78.4790 24° Northeast 529 609 31,000  Level FlightAware
04:53PM 45.7460 -78.4290 26° Northeast 528 608 31,000  Level FlightAware
04:53PM 45.8290 -78.3720 26° Northeast 529 609 31,000  Level FlightAware
04:54PM 45.9050 -78.3210 25° Northeast 529 609 31,000 1,140 Level FlightAware
04:54PM 45.9780 -78.2720 25° Northeast 519 597 32,300 3,240 Climbing FlightAware
04:55PM 46.0570 -78.2180 25° Northeast 502 578 34,700 3,000 Climbing FlightAware
04:56PM 46.1290 -78.1520 32° Northeast 497 572 36,000 1,080 Climbing FlightAware
04:56PM 46.1890 -78.0900 36° Northeast 498 573 36,000  Level FlightAware
04:57PM 46.2430 -78.0420 32° Northeast 486 559 36,000  Level FlightAware
04:57PM 46.2900 -78.0230 16° North 470 541 36,000 300 Level FlightAware
04:58PM 46.3650 -78.0320 355° North 444 511 36,300 1,080 Climbing FlightAware
04:58PM 46.3900 -78.0470 338° Northwest 427 491 36,900 3,660 Climbing FlightAware
04:58PM 46.4210 -78.0810 323° Northwest 399 459 38,400 3,240 Climbing FlightAware
04:58PM 46.4400 -78.1130 311° West 397 457 38,900 1,260 Climbing FlightAware
04:59PM 46.4510 -78.1410 300° West 403 464 39,000 540 Climbing FlightAware
04:59PM 46.4610 -78.1940 285° West 411 473 39,200 1,560 Climbing FlightAware
05:00PM 46.4420 -78.3200 258° West 414 476 40,800 1,680 Climbing FlightAware
05:00PM 46.4270 -78.3510 235° Southwest 413 475 41,000 360 Climbing FlightAware
05:00PM 46.4030 -78.3820 222° Southwest 409 471 41,000  Level FlightAware
05:01PM 46.3700 -78.4070 208° Southwest 425 489 41,000  Level FlightAware
05:01PM 46.3270 -78.4200 192° South 448 516 41,000  Level FlightAware
05:01PM 46.2890 -78.4180 178° South 463 533 41,000  Level FlightAware
05:02PM 46.2120 -78.4000 171° South 465 535 41,000  Level FlightAware
05:02PM 46.1310 -78.3800 170° South 464 534 41,000 60 Level FlightAware
05:03PM 46.0670 -78.3640 170° South 464 534 41,100  Climbing FlightAware
05:04PM 45.9850 -78.3440 170° South 481 554 41,000 -120 Descending FlightAware
05:04PM 45.9040 -78.3270 172° South 496 571 41,000  Level FlightAware
05:05PM 45.8300 -78.3100 171° South 499 574 41,000  Level FlightAware
05:05PM 45.7530 -78.2930 171° South 501 577 41,000  Level FlightAware
05:06PM 45.6650 -78.2740 171° South 509 586 41,000  Level FlightAware
05:07PM 45.5850 -78.2570 172° South 517 595 41,000 60 Level FlightAware
05:07PM 45.5100 -78.2440 173° South 509 586 41,100 300 Climbing FlightAware
05:07PM 45.4560 -78.2530 187° South 490 564 41,300 480 Climbing FlightAware
05:08PM 45.3790 -78.2930 200° South 483 556 41,600 540 Climbing FlightAware
05:09PM 45.3110 -78.3390 205° Southwest 475 547 42,000 660 Climbing FlightAware
05:09PM 45.2460 -78.3900 209° Southwest 475 547 42,400 780 Climbing FlightAware
05:10PM 45.1750 -78.4470 210° Southwest 475 547 42,900 900 Climbing FlightAware
05:10PM 45.1070 -78.5040 211° Southwest 473 544 43,500 840 Climbing FlightAware
05:11PM 45.0660 -78.5390 211° Southwest 470 541 43,900 960 Climbing FlightAware
05:11PM 44.9870 -78.6120 213° Southwest 459 528 44,600 1,080 Climbing FlightAware
05:12PM 44.9630 -78.6490 227° Southwest 446 513 44,800 780 Climbing FlightAware
05:12PM 44.9440 -78.6980 241° Southwest 434 499 45,100 960 Climbing FlightAware
05:12PM 44.9350 -78.7440 255° West 425 489 45,400 840 Climbing FlightAware
05:13PM 44.9390 -78.8280 274° West 418 481 45,800 720 Climbing FlightAware
05:13PM 44.9510 -78.8690 292° West 419 482 46,000 600 Climbing FlightAware
05:13PM 44.9640 -78.8960 304° West 420 483 46,100 600 Climbing FlightAware
05:14PM 44.9850 -78.9260 315° West 426 490 46,300 480 Climbing FlightAware
05:14PM 45.0200 -78.9560 329° Northwest 437 503 46,400 420 Climbing FlightAware
05:14PM 45.0610 -78.9720 345° North 448 516 46,600 600 Climbing FlightAware
05:15PM 45.1370 -78.9650 North 465 535 47,000 300 Climbing FlightAware
05:15PM 45.2080 -78.9460 11° North 462 532 47,000  Level FlightAware
05:16PM 45.2830 -78.9260 11° North 443 510 47,000  Level FlightAware
05:17PM 45.3500 -78.9070 11° North 449 517 47,000  Level FlightAware
05:17PM 45.4270 -78.8850 11° North 450 518 47,000  Level FlightAware
05:18PM 45.4940 -78.8660 11° North 459 528 47,000  Level FlightAware
05:18PM 45.5630 -78.8430 13° North 469 540 47,000  Level FlightAware
05:19PM 45.6410 -78.8160 14° North 475 547 47,000  Level FlightAware
05:20PM 45.7210 -78.7880 14° North 480 552 47,000  Level FlightAware
05:20PM 45.7910 -78.7640 13° North 481 554 47,000  Level FlightAware
05:21PM 45.8670 -78.7370 14° North 482 555 47,000 60 Level FlightAware
05:21PM 45.9450 -78.7100 14° North 482 555 47,100 300 Climbing FlightAware
05:22PM 46.0260 -78.6820 13° North 483 556 47,400 420 Climbing FlightAware
05:22PM 46.0970 -78.6570 14° North 481 554 47,600 420 Climbing FlightAware
05:23PM 46.1730 -78.6310 13° North 479 551 47,900 420 Climbing FlightAware
05:24PM 46.2510 -78.6030 14° North 476 548 48,100 360 Climbing FlightAware
05:24PM 46.3270 -78.5770 13° North 474 545 48,400 300 Climbing FlightAware
05:25PM 46.3960 -78.5530 13° North 473 544 48,500 240 Climbing FlightAware
05:25PM 46.4730 -78.5270 13° North 472 543 48,700 300 Climbing FlightAware
05:26PM 46.5490 -78.5000 14° North 472 543 48,900 120 Climbing FlightAware
05:27PM 46.6200 -78.4750 14° North 473 544 48,900 -60 Level FlightAware
05:27PM 46.6640 -78.4600 13° North 472 543 -60 Descending FlightAware
05:27PM 46.7140 -78.4420 14° North 473 544 2,580 Level FlightAware
05:28PM 46.7570 -78.4260 14° North 471 542 2,640 Level FlightAware
05:28PM 46.7990 -78.4110 14° North 470 541 2,700 Level FlightAware
05:28PM 46.8240 -78.4020 14° North 471 542 2,760 Level FlightAware
05:29PM 46.8750 -78.3830 14° North 469 540 2,820 Level FlightAware
05:29PM 46.9210 -78.3680 13° North 469 540 2,880 Level FlightAware
05:29PM 46.9630 -78.3530 14° North 468 539 2,940 Level FlightAware
05:30PM 47.0010 -78.3400 13° North 466 536 3,000 Level FlightAware
05:30PM 47.0390 -78.3280 12° North 464 534 3,060 Level FlightAware
05:30PM 47.0800 -78.3150 12° North 461 531 3,120 Level FlightAware
05:31PM 47.1260 -78.3000 13° North 460 529 3,180 Level FlightAware
05:31PM 47.1470 -78.2930 13° North 460 529 3,240 Level FlightAware
05:31PM 47.1930 -78.2790 12° North 460 529 3,300 Level FlightAware
05:31PM 47.2390 -78.2650 12° North 458 527 3,360 Level FlightAware
05:32PM 47.2820 -78.2510 12° North 456 525 3,480 Level FlightAware
05:32PM 47.3250 -78.2380 12° North 456 525 3,600 Level FlightAware
05:32PM 47.3600 -78.2280 11° North 455 524 3,660 Level FlightAware
05:33PM 47.3990 -78.2160 12° North 456 525 3,780 Level FlightAware
05:33PM 47.4420 -78.2030 12° North 455 524 3,840 Level FlightAware
05:33PM 47.4810 -78.1910 12° North 454 522 3,960 Level FlightAware
05:34PM 47.5050 -78.1840 11° North 454 522 4,080 Level FlightAware
05:34PM 47.5590 -78.1680 11° North 453 521 4,140 Level FlightAware
05:34PM 47.5930 -78.1570 12° North 453 521 4,320 Level FlightAware
05:35PM 47.6260 -78.1480 10° North 453 521 4,440 Level FlightAware
05:35PM 47.6680 -78.1350 12° North 451 519 4,500 Level FlightAware
05:35PM 47.7060 -78.1230 12° North 450 518 4,680 Level FlightAware
05:36PM 47.7510 -78.1100 11° North 450 518 4,860 Level FlightAware
05:36PM 47.8010 -78.0940 12° North 448 516 4,980 Level FlightAware
05:37PM 47.8560 -78.0780 11° North 448 516 5,220 Level FlightAware
05:37PM 47.8770 -78.0710 13° North 222 255 5,520 Level FlightAware
05:37PM 47.9510 -78.0460 13° North 450 518 5,640 Level FlightAware
05:38PM 47.9870 -78.0220 24° Northeast 461 531 6,120 Level FlightAware
05:38PM 48.0080 -77.9990 36° Northeast 467 537 6,360 Level FlightAware
05:38PM 48.0660 -77.9120 45° Northeast 472 543 6,540 Level FlightAware
05:39PM 48.0680 -77.7300 89° East 496 571 7,200 Level FlightAware
05:40PM 48.0580 -77.6770 106° East 495 570 8,160 Level FlightAware
05:40PM 48.0460 -77.6420 117° Southeast 494 568 8,520 Level FlightAware
05:40PM 48.0250 -77.5970 125° Southeast 488 562 8,820 Level FlightAware
05:40PM 48.0060 -77.5680 134° Southeast 483 556 9,240 Level FlightAware
05:40PM 47.9790 -77.5400 145° Southeast 476 548 9,660 Level FlightAware
05:41PM 47.9340 -77.5110 157° South 463 533 10,140 Level FlightAware
05:41PM 47.8920 -77.5030 173° South 452 520 10,980 Level FlightAware
05:41PM 47.8510 -77.5030 180° South 450 518 12,000 Level FlightAware
05:42PM 47.8080 -77.5040 181° South 447 514 13,080 Level FlightAware
05:42PM 47.7730 -77.5130 190° South 438 504 14,340 Level FlightAware
05:42PM 47.7350 -77.5280 195° South 437 503 15,660 Level FlightAware
05:43PM 47.7020 -77.5420 196° South 436 502 17,580 Level FlightAware
05:43PM 47.6600 -77.5600 196° South 436 502 19,620 Level FlightAware
05:43PM 47.6320 -77.5730 197° South 437 503 23,100 Level FlightAware
05:44PM 47.5940 -77.5890 196° South 436 502 26,040 Level FlightAware
05:44PM 47.5440 -77.6110 197° South 436 502 31,740 Level FlightAware
05:44PM 47.5060 -77.6270 196° South 441 507 44,460 Level FlightAware
05:45PM 47.4740 -77.6400 195° South 454 522 62,820 Level FlightAware
05:45PM 47.4110 -77.6650 195° South 468 539 48,200 40,260 Climbing FlightAware
05:46PM 47.3390 -77.6910 194° South 469 540 45,000 -5,940 Descending FlightAware
05:46PM 47.2600 -77.7190 194° South 457 526 41,000 -8,220 Descending FlightAware
05:47PM 47.1850 -77.7450 193° South 477 549 35,200 -8,160 Descending FlightAware
05:48PM 47.1150 -77.7690 193° South 481 554 31,800 -3,720 Descending FlightAware
05:48PM 47.0370 -77.7970 194° South 480 552 31,000 -720 Descending FlightAware
05:49PM 46.9580 -77.8270 195° South 503 579 31,000  Level FlightAware
05:49PM 46.8900 -77.8590 198° South 502 578 31,000  Level FlightAware
05:50PM 46.7980 -77.9030 198° South 501 577 31,000  Level FlightAware
05:50PM 46.7310 -77.9350 198° South 501 577 31,000  Level FlightAware
05:51PM 46.6470 -77.9750 198° South 499 574 31,000  Level FlightAware
05:52PM 46.5740 -78.0090 198° South 499 574 31,000  Level FlightAware
05:52PM 46.4950 -78.0460 198° South 501 577 31,000  Level FlightAware
05:53PM 46.4210 -78.0810 198° South 503 579 31,000  Level FlightAware
05:53PM 46.3390 -78.1190 198° South 505 581 31,000  Level FlightAware
05:54PM 46.2620 -78.1550 198° South 506 582 31,000  Level FlightAware
05:55PM 46.1800 -78.1930 198° South 507 583 31,000  Level FlightAware
05:55PM 46.1050 -78.2270 197° South 507 583 31,000  Level FlightAware
05:56PM 46.0240 -78.2650 198° South 507 583 31,000  Level FlightAware
05:56PM 45.9570 -78.2950 197° South 506 582 31,000  Level FlightAware
05:57PM 45.8680 -78.3360 198° South 506 582 31,000  Level FlightAware
05:58PM 45.7880 -78.3730 198° South 506 582 31,000  Level FlightAware
05:58PM 45.7110 -78.4080 198° South 507 583 31,000  Level FlightAware
05:59PM 45.6370 -78.4420 198° South 506 582 31,000  Level FlightAware
05:59PM 45.5640 -78.4740 197° South 507 583 31,000 -1,200 Level FlightAware
06:00PM 45.4890 -78.5080 198° South 502 578 29,700 -2,400 Descending FlightAware
06:00PM 45.4050 -78.5460 198° South 494 568 28,100 -2,520 Descending FlightAware
06:01PM 45.3310 -78.5800 198° South 478 550 26,600 -2,640 Descending FlightAware
06:02PM 45.2620 -78.6100 197° South 472 543 25,200 -2,580 Descending FlightAware
06:02PM 45.1860 -78.6440 198° South 461 531 23,700 -2,460 Descending FlightAware
06:03PM 45.1110 -78.6780 198° South 456 525 22,200 -2,520 Descending FlightAware
06:03PM 45.0480 -78.7060 197° South 444 511 20,900 -2,400 Descending FlightAware
06:04PM 44.9750 -78.7380 197° South 440 506 19,500 -2,340 Descending FlightAware
06:05PM 44.9050 -78.7690 197° South 426 490 18,100 -2,340 Descending FlightAware
06:05PM 44.8490 -78.7930 197° South 401 461 16,900 -2,160 Descending FlightAware
06:06PM 44.7830 -78.8230 198° South 368 423 15,600 -1,980 Descending FlightAware
06:06PM 44.7330 -78.8450 197° South 367 422 14,600 -1,980 Descending FlightAware
06:07PM 44.6730 -78.8710 197° South 359 413 13,400 -1,980 Descending FlightAware
06:07PM 44.6210 -78.8930 197° South 338 389 12,300 -1,860 Descending FlightAware
06:08PM 44.5700 -78.9160 198° South 315 362 11,300 -1,680 Descending FlightAware
06:09PM 44.5210 -78.9370 197° South 293 337 10,300 -1,620 Descending FlightAware
06:09PM 44.4960 -78.9480 197° South 284 327 9,800 -1,500 Descending FlightAware
06:09PM 44.4650 -78.9610 197° South 280 322 9,200 -1,440 Descending FlightAware
06:10PM 44.4430 -78.9710 198° South 278 320 8,800 -1,500 Descending FlightAware
06:10PM 44.4300 -78.9770 198° South 279 321 8,500 -1,680 Descending FlightAware
06:10PM 44.3970 -78.9910 197° South 280 322 7,800 -1,440 Descending FlightAware
06:11PM 44.3730 -79.0010 197° South 277 319 7,400 -1,260 Descending FlightAware
06:11PM 44.3500 -79.0110 197° South 271 312 6,900 -1,560 Descending FlightAware
06:11PM 44.3210 -79.0240 198° South 266 306 6,300 -1,560 Descending FlightAware
06:12PM 44.2980 -79.0340 197° South 266 306 5,900 -1,440 Descending FlightAware
06:12PM 44.2710 -79.0450 196° South 264 304 5,300 -1,320 Descending FlightAware
06:12PM 44.2570 -79.0550 207° Southwest 262 302 5,100 -900 Descending FlightAware
06:12PM 44.2500 -79.0630 219° Southwest 261 300 5,000 -840 Descending FlightAware
06:12PM 44.2440 -79.0720 227° Southwest 261 300 4,900 -900 Descending FlightAware
06:13PM 44.2310 -79.1020 239° Southwest 257 296 4,600 -1,080 Descending FlightAware
06:13PM 44.2190 -79.1300 239° Southwest 248 285 4,200 -1,020 Descending FlightAware
06:14PM 44.2060 -79.1620 240° Southwest 234 269 3,900 -420 Descending FlightAware
06:14PM 44.1960 -79.1880 242° Southwest 236 272 3,900  Level FlightAware
06:14PM 44.1880 -79.2070 240° Southwest 235 270 3,900  Level FlightAware
06:14PM 44.1770 -79.2360 242° Southwest 234 269 3,900  Level FlightAware
06:15PM 44.1670 -79.2620 242° Southwest 235 270 3,900  Level FlightAware
06:15PM 44.1560 -79.2870 238° Southwest 235 270 3,900  Level FlightAware
06:16PM 44.1430 -79.3200 241° Southwest 235 270 3,900  Level FlightAware
06:16PM 44.1330 -79.3450 241° Southwest 234 269 3,900  Level FlightAware
06:16PM 44.1220 -79.3730 241° Southwest 232 267 3,900  Level FlightAware
06:17PM 44.1110 -79.3990 239° Southwest 230 265 3,900  Level FlightAware
06:17PM 44.1000 -79.4270 241° Southwest 229 264 3,900  Level FlightAware
06:17PM 44.0920 -79.4470 241° Southwest 230 265 3,900 -180 Level FlightAware
06:17PM 44.0810 -79.4740 240° Southwest 230 265 3,800 -600 Descending FlightAware
06:18PM 44.0710 -79.5000 242° Southwest 230 265 3,500 -960 Descending FlightAware
06:18PM 44.0570 -79.5280 235° Southwest 231 266 3,100 -1,080 Descending FlightAware
06:18PM 44.0530 -79.5320 216° Southwest 229 264 3,000 -1,200 Descending FlightAware
06:18PM 44.0480 -79.5370 216° Southwest 227 261 2,900 -840 Descending FlightAware
06:19PM 44.0380 -79.5420 200° South 225 259 2,800 -1,080 Descending FlightAware
06:19PM 44.0190 -79.5500 197° South 219 252 2,400 -720 Descending FlightAware
06:19PM 44.0070 -79.5550 197° South 210 242 2,400  Level FlightAware
06:19PM 43.9890 -79.5630 198° South 207 238 2,400  Level FlightAware
06:20PM 43.9660 -79.5720 196° South 206 237 2,400  Level FlightAware
06:20PM 43.9480 -79.5800 198° South 199 229 2,400  Level FlightAware
06:21PM 43.9310 -79.5870 197° South 186 214 2,400 -300 Level FlightAware
06:21PM 43.9130 -79.5940 196° South 183 211 2,200 -540 Descending FlightAware
06:21PM 43.9020 -79.5980 195° South 183 211 2,100 -540 Descending FlightAware
06:21PM 43.8940 -79.5970 175° South 180 207 2,000 -960 Descending FlightAware
06:21PM 43.8890 -79.5960 172° South 177 204 1,900 -600 Descending FlightAware
06:21PM 43.8850 -79.5930 152° Southeast 177 204 1,900  Level FlightAware
06:22PM 43.8700 -79.5810 150° Southeast 173 199 1,900  Level FlightAware
06:22PM 43.8600 -79.5720 147° Southeast 173 199 1,900  Level FlightAware
06:22PM 43.8460 -79.5600 148° Southeast 174 200 1,900  Level FlightAware
06:23PM 43.8320 -79.5470 146° Southeast 174 200 1,900 -180 Level FlightAware
06:23PM 43.8230 -79.5390 147° Southeast 167 192 1,800 -360 Descending FlightAware
06:23PM 43.8110 -79.5280 147° Southeast 155 178 1,700 -300 Descending FlightAware
06:24PM 43.7990 -79.5180 149° Southeast 145 167 1,600 -420 Descending FlightAware
06:24PM 43.7870 -79.5070 147° Southeast 124 143 1,400 -540 Descending FlightAware
06:24PM 43.7790 -79.4990 144° Southeast 117 135 1,200 -600 Descending FlightAware
06:25PM 43.7680 -79.4910 152° Southeast 116 133 1,000 -540 Descending FlightAware
06:25PM 43.7560 -79.4800 146° Southeast 117 135 800 -540 Descending FlightAware
06:26PM 43.7470 -79.4700 141° Southeast 115 132 600 -600 Descending FlightAware
06:26PM 43.7430 -79.4650 138° Southeast 99 114 -1,920 Descending FlightAware
06:26PM 43.7400 -79.4630 154° Southeast 99 114  Level FlightAware
06:27PM 43.7360 -79.4500 113° Southeast 99 114  Level FlightAware
06:27PM 43.7430 -79.4660 301° West 99 114  Level FlightAware
06:28PM 43.7420 -79.4670 216° Southwest 99 114  Level FlightAware
06:28PM 43.7410 -79.4680 216° Southwest 99 114  Level FlightAware
06:28PM 43.7400 -79.4690 216° Southwest 99 114  Level FlightAware
06:29PM 43.7420 -79.4550 79° East 99 114  Level FlightAware
06:34PM 43.7333 -79.4500 North  Level FlightAware Approximate
06:35PM 43.7425 -79.4656 North  Level Estimated